Time;durP1;ratioP1;P1;durP2;ratioP2;P2;SDS_P1;SDS_P2;PMS_P1;PMS_P2;Temp;Humidity;BMP_temperature;BMP_pressure;BME280_temperature;BME280_humidity;BME280_pressure;Samples;Min_cycle;Max_cycle;Signal;HPM_P1;HPM_P2
2023/04/09 00:01:07;;;;;;;71.78;43.17;;;10.10;99.90;;;;;;5072084;28;20556;-70
2023/04/09 00:03:34;;;;;;;64.85;39.97;;;10.30;99.90;;;;;;5071876;28;20055;-70
2023/04/09 00:06:00;;;;;;;67.03;39.60;;;10.00;99.90;;;;;;5071570;28;20556;-70
2023/04/09 00:08:25;;;;;;;61.58;37.35;;;9.90;99.90;;;;;;5071909;28;20119;-70
2023/04/09 00:10:52;;;;;;;61.83;37.83;;;;;;;;;;5071978;28;20484;-70
2023/04/09 00:13:18;;;;;;;57.78;36.63;;;10.00;99.90;;;;;;5071645;28;20500;-70
2023/04/09 00:15:45;;;;;;;59.65;36.17;;;9.90;99.90;;;;;;5071642;28;20539;-70
2023/04/09 00:18:11;;;;;;;61.83;35.90;;;9.80;99.90;;;;;;5071890;28;20102;-68
2023/04/09 00:20:37;;;;;;;56.92;35.67;;;;;;;;;;5072008;28;20407;-70
2023/04/09 00:23:03;;;;;;;61.95;35.90;;;;;;;;;;5071713;28;20124;-70
2023/04/09 00:25:29;;;;;;;61.63;36.53;;;9.90;99.90;;;;;;5071615;28;20446;-70
2023/04/09 00:27:55;;;;;;;55.92;34.47;;;9.90;99.90;;;;;;5071523;28;20040;-70
2023/04/09 00:30:21;;;;;;;48.15;32.47;;;10.10;99.90;;;;;;5080171;28;20051;-70
2023/04/09 00:32:47;;;;;;;54.30;32.03;;;10.00;99.90;;;;;;5091845;28;20036;-70
2023/04/09 00:35:13;;;;;;;55.85;33.85;;;10.00;99.90;;;;;;5091543;28;20044;-70
2023/04/09 00:37:38;;;;;;;58.58;34.08;;;10.50;99.90;;;;;;5091429;28;20036;-70
2023/04/09 00:40:05;;;;;;;53.65;32.45;;;10.00;99.90;;;;;;5091699;28;20044;-70
2023/04/09 00:42:35;;;;;;;51.28;31.50;;;10.20;99.90;;;;;;5073571;28;20491;-70
2023/04/09 00:45:00;;;;;;;53.22;33.17;;;10.10;99.90;;;;;;5073756;28;20048;-70
2023/04/09 00:47:29;;;;;;;49.47;32.63;;;9.90;99.90;;;;;;5091348;28;20043;-69
2023/04/09 00:49:55;;;;;;;54.67;33.40;;;;;;;;;;5091454;28;20072;-70
2023/04/09 00:52:21;;;;;;;58.75;33.60;;;10.10;99.90;;;;;;5091660;28;20036;-70
2023/04/09 00:54:48;;;;;;;49.05;32.03;;;;;;;;;;5091521;28;20562;-70
2023/04/09 00:57:14;;;;;;;50.45;33.78;;;9.90;99.90;;;;;;5091288;28;20384;-70
2023/04/09 00:59:40;;;;;;;53.22;31.35;;;9.80;99.90;;;;;;5091729;28;20455;-70
2023/04/09 01:02:06;;;;;;;58.25;34.00;;;10.00;99.90;;;;;;5091537;28;20088;-69
2023/04/09 01:04:32;;;;;;;57.47;34.83;;;10.10;99.90;;;;;;5091469;28;20119;-70
2023/04/09 01:07:00;;;;;;;59.58;34.33;;;10.00;99.90;;;;;;5091367;28;20040;-70
2023/04/09 01:09:41;;;;;;;54.00;34.00;;;9.90;99.90;;;;;;5091237;28;20040;-69
2023/04/09 01:12:12;;;;;;;55.83;33.63;;;10.20;99.90;;;;;;5073601;28;20035;-70
2023/04/09 01:15:05;;;;;;;60.42;35.63;;;10.50;99.90;;;;;;5091453;28;20032;-70
2023/04/09 01:17:36;;;;;;;55.83;32.90;;;9.80;99.90;;;;;;5091186;28;20055;-70
2023/04/09 01:20:05;;;;;;;58.28;34.22;;;10.00;99.90;;;;;;5091243;28;20036;-69
2023/04/09 01:22:37;;;;;;;63.60;35.88;;;9.90;99.90;;;;;;5091564;28;20044;-70
2023/04/09 01:25:11;;;;;;;61.15;35.28;;;9.90;99.90;;;;;;5091392;28;20077;-70
2023/04/09 01:27:53;;;;;;;58.63;34.97;;;9.90;99.90;;;;;;5091222;28;20522;-70
2023/04/09 01:30:20;;;;;;;65.18;37.55;;;9.70;99.90;;;;;;5091100;28;20040;-70
2023/04/09 01:32:46;;;;;;;65.60;36.53;;;9.60;99.90;;;;;;5091405;28;20040;-70
2023/04/09 01:35:13;;;;;;;68.80;39.30;;;;;;;;;;5091405;28;20047;-70
2023/04/09 01:37:40;;;;;;;74.30;39.05;;;9.90;99.90;;;;;;5091261;28;20444;-70
2023/04/09 01:40:07;;;;;;;78.72;41.75;;;9.80;99.90;;;;;;5091067;28;20040;-70
2023/04/09 01:42:34;;;;;;;76.32;41.30;;;9.80;99.90;;;;;;5073104;28;20044;-70
2023/04/09 01:45:01;;;;;;;76.60;40.15;;;9.70;99.90;;;;;;5090942;28;20106;-70
2023/04/09 01:47:27;;;;;;;77.03;41.70;;;9.70;99.90;;;;;;5091170;28;20051;-70
2023/04/09 01:49:53;;;;;;;76.88;42.17;;;9.50;99.90;;;;;;5091082;28;20036;-70
2023/04/09 01:52:19;;;;;;;82.72;42.08;;;9.50;99.90;;;;;;5091153;28;20111;-70
2023/04/09 01:54:44;;;;;;;74.85;41.75;;;9.60;99.90;;;;;;5091151;28;20028;-70
2023/04/09 01:57:10;;;;;;;74.00;40.13;;;9.50;99.90;;;;;;5090840;28;20035;-69
2023/04/09 01:59:35;;;;;;;77.03;40.03;;;9.50;99.90;;;;;;5093682;28;20481;-70
2023/04/09 02:02:09;;;;;;;72.50;40.35;;;9.40;99.90;;;;;;5094733;28;20040;-70
2023/04/09 02:04:39;;;;;;;70.70;39.67;;;9.70;99.90;;;;;;5094797;28;20044;-70
2023/04/09 02:07:10;;;;;;;76.13;39.90;;;9.60;99.90;;;;;;5075999;28;20124;-69
2023/04/09 02:09:39;;;;;;;82.82;40.03;;;9.60;99.90;;;;;;5094518;28;20036;-70
2023/04/09 02:12:12;;;;;;;71.22;37.50;;;9.60;99.90;;;;;;5094308;28;20511;-71
2023/04/09 02:14:40;;;;;;;75.68;40.75;;;9.50;99.90;;;;;;5094609;28;20047;-69
2023/04/09 02:17:05;;;;;;;80.47;40.70;;;9.50;99.90;;;;;;5093956;28;20504;-69
2023/04/09 02:19:49;;;;;;;78.35;40.15;;;9.40;99.90;;;;;;5094376;28;20040;-71
2023/04/09 02:22:16;;;;;;;79.70;42.55;;;;;;;;;;5094445;28;20040;-69
2023/04/09 02:24:41;;;;;;;81.47;42.03;;;9.40;99.90;;;;;;5094104;28;20058;-70
2023/04/09 02:27:07;;;;;;;84.55;44.88;;;9.50;99.90;;;;;;5093946;28;20040;-70
2023/04/09 02:29:33;;;;;;;83.25;42.33;;;9.60;99.90;;;;;;5094094;28;20043;-70
2023/04/09 02:31:59;;;;;;;82.20;42.00;;;9.40;99.90;;;;;;5094172;28;20036;-70
2023/04/09 02:34:24;;;;;;;75.93;40.50;;;9.20;99.90;;;;;;5094151;28;20040;-70
2023/04/09 02:36:51;;;;;;;82.60;40.40;;;9.40;99.90;;;;;;5075847;28;20076;-69
2023/04/09 02:39:17;;;;;;;76.35;39.22;;;9.50;99.90;;;;;;5093742;28;20110;-70
2023/04/09 02:41:43;;;;;;;68.05;35.83;;;9.40;99.90;;;;;;5094067;28;20042;-70
2023/04/09 02:44:09;;;;;;;74.07;37.15;;;9.40;99.90;;;;;;5093739;28;20040;-69
2023/04/09 02:46:35;;;;;;;76.55;38.22;;;9.40;99.90;;;;;;5093624;28;20423;-70
2023/04/09 02:49:01;;;;;;;69.78;37.05;;;;;;;;;;5093620;28;20075;-70
2023/04/09 02:51:26;;;;;;;70.88;36.58;;;9.40;99.90;;;;;;5093777;28;20610;-69
2023/04/09 02:53:52;;;;;;;65.40;33.65;;;9.30;99.90;;;;;;5093443;28;20040;-70
2023/04/09 02:56:18;;;;;;;59.08;32.30;;;9.30;99.90;;;;;;5093594;28;20491;-70
2023/04/09 02:58:44;;;;;;;60.58;32.90;;;9.30;99.90;;;;;;5093673;28;20043;-70
2023/04/09 03:01:10;;;;;;;57.92;30.23;;;;;;;;;;5093594;28;20160;-70
2023/04/09 03:03:38;;;;;;;59.47;29.40;;;9.30;99.90;;;;;;5093426;28;20517;-70
2023/04/09 03:06:04;;;;;;;62.15;31.17;;;9.30;99.90;;;;;;5093106;28;20036;-70
2023/04/09 03:08:30;;;;;;;60.92;31.77;;;9.40;99.90;;;;;;5093202;28;20040;-70
2023/04/09 03:10:55;;;;;;;58.65;29.70;;;9.40;99.90;;;;;;5092243;28;20028;-69
2023/04/09 03:13:21;;;;;;;55.60;29.42;;;;;;;;;;5093344;28;20115;-69
2023/04/09 03:15:51;;;;;;;54.78;28.55;;;9.10;99.90;;;;;;5093084;28;20449;-68
2023/04/09 03:18:17;;;;;;;56.17;29.42;;;9.20;99.90;;;;;;5093121;28;20488;-70
2023/04/09 03:20:43;;;;;;;63.20;32.13;;;;;;;;;;5093062;28;20047;-69
2023/04/09 03:23:09;;;;;;;50.03;28.98;;;9.40;99.90;;;;;;5092920;28;20101;-70
2023/04/09 03:25:35;;;;;;;61.75;31.77;;;9.20;99.90;;;;;;5092846;28;20126;-69
2023/04/09 03:28:01;;;;;;;55.28;29.98;;;9.20;99.90;;;;;;5092948;28;20067;-70
2023/04/09 03:30:27;;;;;;;59.67;30.55;;;9.10;99.90;;;;;;5093261;28;20566;-70
2023/04/09 03:32:53;;;;;;;55.25;30.23;;;9.20;99.90;;;;;;5092889;28;20127;-70
2023/04/09 03:35:19;;;;;;;61.63;31.15;;;9.20;99.90;;;;;;5092704;28;20063;-70
2023/04/09 03:37:45;;;;;;;54.67;30.90;;;;;;;;;;5092854;28;20039;-70
2023/04/09 03:40:11;;;;;;;57.63;31.90;;;9.40;99.90;;;;;;5092691;28;20051;-69
2023/04/09 03:42:37;;;;;;;56.47;31.67;;;9.20;99.90;;;;;;5092817;28;20052;-70
2023/04/09 03:45:04;;;;;;;60.75;30.98;;;9.10;99.90;;;;;;5092641;28;20040;-70
2023/04/09 03:47:29;;;;;;;52.90;28.92;;;9.30;99.90;;;;;;5092285;28;20070;-69
2023/04/09 03:49:56;;;;;;;63.33;32.40;;;;;;;;;;5092291;28;20044;-70
2023/04/09 03:52:21;;;;;;;56.70;30.05;;;9.20;99.90;;;;;;5092742;28;20497;-71
2023/04/09 03:54:47;;;;;;;57.90;31.17;;;9.30;99.90;;;;;;5092529;28;20072;-69
2023/04/09 03:57:13;;;;;;;55.83;28.15;;;9.10;99.90;;;;;;5092434;28;20449;-70
2023/04/09 03:59:38;;;;;;;56.40;27.08;;;9.30;99.90;;;;;;5092293;28;20050;-69
2023/04/09 04:02:04;;;;;;;57.60;29.55;;;9.30;99.90;;;;;;5092375;28;20044;-69
2023/04/09 04:04:29;;;;;;;48.55;26.48;;;9.10;99.90;;;;;;5092067;28;20071;-69
2023/04/09 04:06:55;;;;;;;53.42;29.13;;;9.10;99.90;;;;;;5092078;28;20048;-70
2023/04/09 04:09:21;;;;;;;45.72;25.42;;;9.20;99.90;;;;;;5092312;28;20484;-69
2023/04/09 04:11:47;;;;;;;44.22;24.27;;;9.10;99.90;;;;;;5092370;28;20075;-70
2023/04/09 04:14:12;;;;;;;38.85;22.95;;;9.20;99.90;;;;;;5092020;28;20042;-70
2023/04/09 04:16:39;;;;;;;44.80;23.40;;;9.30;99.90;;;;;;5091946;28;20462;-70
2023/04/09 04:19:05;;;;;;;43.03;24.27;;;8.90;99.90;;;;;;5092180;28;20048;-69
2023/04/09 04:21:31;;;;;;;42.70;23.17;;;9.40;99.90;;;;;;5092366;28;20123;-70
2023/04/09 04:23:57;;;;;;;36.35;22.15;;;9.00;99.90;;;;;;5091952;28;20410;-70
2023/04/09 04:26:22;;;;;;;41.10;23.00;;;9.20;99.90;;;;;;5091623;28;20519;-70
2023/04/09 04:28:48;;;;;;;41.17;23.35;;;9.40;99.90;;;;;;5091953;28;20081;-70
2023/04/09 04:31:14;;;;;;;44.67;22.42;;;9.20;99.90;;;;;;5074011;28;20498;-70
2023/04/09 04:33:41;;;;;;;40.55;22.65;;;9.10;99.90;;;;;;5091837;28;20044;-70
2023/04/09 04:36:08;;;;;;;48.85;25.73;;;9.10;99.90;;;;;;5091286;28;20032;-70
2023/04/09 04:38:34;;;;;;;43.47;24.25;;;9.20;99.90;;;;;;5091988;28;20074;-69
2023/04/09 04:41:00;;;;;;;44.28;25.15;;;9.40;99.90;;;;;;5091953;28;20120;-69
2023/04/09 04:43:25;;;;;;;45.65;24.08;;;9.40;99.90;;;;;;5073502;28;20051;-70
2023/04/09 04:45:51;;;;;;;45.22;25.33;;;9.30;99.90;;;;;;5091656;28;20032;-69
2023/04/09 04:48:17;;;;;;;46.63;25.75;;;9.10;99.90;;;;;;5091522;28;20047;-70
2023/04/09 04:50:42;;;;;;;45.20;24.75;;;9.40;99.90;;;;;;5091950;28;20184;-70
2023/04/09 04:53:08;;;;;;;46.85;25.23;;;;;;;;;;5091808;28;20033;-70
2023/04/09 04:55:38;;;;;;;46.50;26.30;;;9.20;99.90;;;;;;5073591;28;20545;-70
2023/04/09 04:58:04;;;;;;;49.85;26.92;;;10.10;99.90;;;;;;5073399;28;20048;-69
2023/04/09 05:00:30;;;;;;;47.28;26.75;;;;;;;;;;5091615;28;20048;-70
2023/04/09 05:02:56;;;;;;;46.00;26.55;;;9.00;99.90;;;;;;5091429;28;20063;-70
2023/04/09 05:05:22;;;;;;;46.17;26.63;;;;;;;;;;5091715;28;20036;-70
2023/04/09 05:07:48;;;;;;;46.38;26.08;;;9.20;99.90;;;;;;5091571;28;20040;-70
2023/04/09 05:10:14;;;;;;;50.05;27.77;;;;;;;;;;5091280;28;20036;-69
2023/04/09 05:12:39;;;;;;;50.00;27.30;;;9.20;99.90;;;;;;5072933;28;20052;-70
2023/04/09 05:15:05;;;;;;;50.03;27.88;;;9.20;99.90;;;;;;5091388;28;20122;-69
2023/04/09 05:17:31;;;;;;;52.38;27.08;;;8.90;99.90;;;;;;5091100;28;20032;-70
2023/04/09 05:19:57;;;;;;;51.45;28.30;;;9.10;99.90;;;;;;5091222;28;20412;-70
2023/04/09 05:22:23;;;;;;;52.28;29.83;;;;;;;;;;5073280;28;20038;-70
2023/04/09 05:24:49;;;;;;;48.17;26.95;;;;;;;;;;5091256;28;20125;-69
2023/04/09 05:27:14;;;;;;;53.00;27.92;;;9.00;99.90;;;;;;5091188;28;20044;-70
2023/04/09 05:29:40;;;;;;;53.67;28.52;;;;;;;;;;5091044;28;20559;-69
2023/04/09 05:32:08;;;;;;;47.33;28.52;;;;;;;;;;5091195;28;20125;-70
2023/04/09 05:34:34;;;;;;;57.20;28.83;;;;;;;;;;5076046;28;20044;-69
2023/04/09 05:37:00;;;;;;;48.00;27.00;;;9.20;99.90;;;;;;5095046;28;20164;-70
2023/04/09 05:39:26;;;;;;;48.30;27.75;;;9.10;99.90;;;;;;5095086;28;20086;-70
2023/04/09 05:41:51;;;;;;;48.58;27.27;;;9.10;99.90;;;;;;5095094;28;20068;-70
2023/04/09 05:44:17;;;;;;;47.40;26.63;;;9.10;99.90;;;;;;5094779;28;20051;-70
2023/04/09 05:46:43;;;;;;;49.13;27.30;;;9.30;99.90;;;;;;5094608;28;20044;-69
2023/04/09 05:49:08;;;;;;;41.78;25.45;;;9.20;99.90;;;;;;5076817;28;20056;-69
2023/04/09 05:51:34;;;;;;;45.72;26.13;;;9.10;99.90;;;;;;5095015;28;20032;-70
2023/04/09 05:54:00;;;;;;;47.92;27.25;;;;;;;;;;5094532;28;20043;-70
2023/04/09 05:56:26;;;;;;;48.60;27.52;;;8.90;99.90;;;;;;5094569;28;20081;-70
2023/04/09 05:58:53;;;;;;;49.58;26.48;;;9.10;99.90;;;;;;5094651;28;20503;-70
2023/04/09 06:01:19;;;;;;;47.50;27.05;;;;;;;;;;5094580;28;20071;-69
2023/04/09 06:03:44;;;;;;;51.92;27.60;;;9.20;99.90;;;;;;5094517;28;20101;-70
2023/04/09 06:06:10;;;;;;;47.80;27.35;;;9.10;99.90;;;;;;5094388;28;20039;-70
2023/04/09 06:08:36;;;;;;;46.40;26.67;;;;;;;;;;5094419;28;20044;-70
2023/04/09 06:11:02;;;;;;;40.95;24.00;;;;;;;;;;5094351;28;20036;-69
2023/04/09 06:13:28;;;;;;;43.53;25.33;;;9.10;99.90;;;;;;5094443;28;20039;-70
2023/04/09 06:15:53;;;;;;;44.88;27.45;;;9.30;99.90;;;;;;5094158;28;20063;-70
2023/04/09 06:18:19;;;;;;;46.08;27.00;;;9.20;99.90;;;;;;5094448;28;20115;-70
2023/04/09 06:20:45;;;;;;;41.15;24.15;;;;;;;;;;5094580;28;20032;-70
2023/04/09 06:23:10;;;;;;;44.35;26.63;;;9.20;99.90;;;;;;5094348;28;20067;-70
2023/04/09 06:25:36;;;;;;;47.72;26.33;;;9.20;99.90;;;;;;5093922;28;20230;-69
2023/04/09 06:28:02;;;;;;;41.10;25.60;;;9.30;99.90;;;;;;5088754;28;20036;-70
2023/04/09 06:30:28;;;;;;;40.33;25.55;;;;;;;;;;5082267;28;20158;-70
2023/04/09 06:32:54;;;;;;;41.60;23.90;;;9.20;99.90;;;;;;5083955;28;20077;-70
2023/04/09 06:35:19;;;;;;;40.92;24.35;;;9.30;99.90;;;;;;5084112;28;20702;-69
2023/04/09 06:37:45;;;;;;;40.47;24.00;;;9.30;99.90;;;;;;5082115;28;20059;-70
2023/04/09 06:40:11;;;;;;;43.67;24.60;;;9.30;99.90;;;;;;5084245;28;20040;-70
2023/04/09 06:42:37;;;;;;;41.65;24.10;;;9.30;99.90;;;;;;5083402;28;20127;-70
2023/04/09 06:45:07;;;;;;;46.25;25.92;;;9.30;99.90;;;;;;5081908;28;20119;-70
2023/04/09 06:47:34;;;;;;;39.03;23.67;;;9.20;99.90;;;;;;5082607;28;20452;-70
2023/04/09 06:49:59;;;;;;;45.92;25.10;;;9.30;99.90;;;;;;5086549;28;20028;-70
2023/04/09 06:52:25;;;;;;;42.80;25.65;;;9.40;99.90;;;;;;5093686;28;20035;-70
2023/04/09 06:54:51;;;;;;;44.95;27.02;;;;;;;;;;5090656;28;20032;-70
2023/04/09 06:57:16;;;;;;;45.78;27.65;;;9.30;99.90;;;;;;5093017;28;20395;-70
2023/04/09 06:59:42;;;;;;;47.28;27.50;;;9.40;99.90;;;;;;5093341;28;20101;-70
2023/04/09 07:02:08;;;;;;;46.13;26.67;;;9.30;99.90;;;;;;5093371;28;20418;-70
2023/04/09 07:04:34;;;;;;;45.88;25.45;;;9.30;99.90;;;;;;5093705;28;20036;-70
2023/04/09 07:07:00;;;;;;;49.05;27.85;;;;;;;;;;5093195;28;20523;-70
2023/04/09 07:09:26;;;;;;;46.00;27.73;;;9.20;99.90;;;;;;5075412;28;20453;-70
2023/04/09 07:11:51;;;;;;;51.45;28.90;;;9.30;99.90;;;;;;5093418;28;20081;-70
2023/04/09 07:14:17;;;;;;;53.53;27.65;;;9.20;99.90;;;;;;5093081;28;20196;-70
2023/04/09 07:16:45;;;;;;;47.83;26.58;;;;;;;;;;5093079;28;20036;-70
2023/04/09 07:19:11;;;;;;;48.38;28.80;;;9.30;99.90;;;;;;5093432;28;20134;-71
2023/04/09 07:21:36;;;;;;;50.53;27.88;;;9.30;99.90;;;;;;5093151;28;20474;-70
2023/04/09 07:24:02;;;;;;;52.15;28.58;;;9.50;99.90;;;;;;5093114;28;20071;-70
2023/04/09 07:26:29;;;;;;;44.47;25.98;;;;;;;;;;5092728;28;20040;-70
2023/04/09 07:28:55;;;;;;;46.50;27.33;;;9.40;99.90;;;;;;5092793;28;20040;-70
2023/04/09 07:31:20;;;;;;;47.97;26.73;;;9.30;99.90;;;;;;5092943;28;20039;-70
2023/04/09 07:33:46;;;;;;;49.58;27.50;;;9.30;99.90;;;;;;5074843;28;20596;-70
2023/04/09 07:36:11;;;;;;;46.00;26.52;;;9.30;99.90;;;;;;5092882;28;20100;-70
2023/04/09 07:38:37;;;;;;;49.63;27.35;;;9.20;99.90;;;;;;5092851;28;20129;-70
2023/04/09 07:41:03;;;;;;;46.13;25.83;;;;;;;;;;5092743;28;20039;-70
2023/04/09 07:43:29;;;;;;;52.08;27.27;;;9.30;99.90;;;;;;5074845;28;20086;-70
2023/04/09 07:45:55;;;;;;;47.28;26.67;;;9.30;99.90;;;;;;5093209;28;20047;-70
2023/04/09 07:48:20;;;;;;;47.35;27.83;;;9.30;99.90;;;;;;5092719;28;20040;-69
2023/04/09 07:50:47;;;;;;;46.60;26.95;;;;;;;;;;5092569;28;20036;-70
2023/04/09 07:53:13;;;;;;;42.00;25.33;;;;;;;;;;5092548;28;20450;-70
2023/04/09 07:55:39;;;;;;;48.25;27.08;;;9.50;99.90;;;;;;5091699;28;20495;-69
2023/04/09 07:58:06;;;;;;;44.55;25.55;;;;;;;;;;5092199;28;20042;-70
2023/04/09 08:00:32;;;;;;;43.50;25.83;;;9.60;99.90;;;;;;5073280;28;20035;-69
2023/04/09 08:02:57;;;;;;;41.53;26.23;;;9.50;99.90;;;;;;5091811;28;20412;-70
2023/04/09 08:05:23;;;;;;;45.67;27.13;;;9.70;99.90;;;;;;5091376;28;20197;-69
2023/04/09 08:07:50;;;;;;;47.03;26.05;;;9.60;99.90;;;;;;5092118;28;20083;-69
2023/04/09 08:10:16;;;;;;;50.67;27.77;;;9.70;99.90;;;;;;5092101;28;20508;-70
2023/04/09 08:12:42;;;;;;;41.28;25.15;;;;;;;;;;5092375;28;20124;-69
2023/04/09 08:15:08;;;;;;;46.38;27.15;;;9.80;99.90;;;;;;5092354;28;20082;-70
2023/04/09 08:17:36;;;;;;;41.90;24.92;;;9.80;99.90;;;;;;5092145;28;20032;-70
2023/04/09 08:20:05;;;;;;;44.88;25.92;;;9.90;99.90;;;;;;5092216;28;20065;-70
2023/04/09 08:22:31;;;;;;;45.00;25.15;;;;;;;;;;5091855;28;20044;-70
2023/04/09 08:24:57;;;;;;;40.40;25.58;;;9.90;99.90;;;;;;5087635;28;20042;-70
2023/04/09 08:27:23;;;;;;;44.60;25.67;;;9.60;99.90;;;;;;5078844;28;20121;-68
2023/04/09 08:29:49;;;;;;;45.00;26.38;;;9.90;99.90;;;;;;5074987;28;20504;-69
2023/04/09 08:32:15;;;;;;;43.53;25.40;;;9.80;99.90;;;;;;5075001;28;20479;-70
2023/04/09 08:34:40;;;;;;;44.20;26.25;;;9.90;99.90;;;;;;5072299;28;20036;-69
2023/04/09 08:37:06;;;;;;;39.05;24.70;;;9.80;99.90;;;;;;5075895;28;20128;-71
2023/04/09 08:39:32;;;;;;;39.55;24.45;;;;;;;;;;5074605;28;20467;-69
2023/04/09 08:42:01;;;;;;;42.97;25.85;;;9.90;99.90;;;;;;5076340;28;20453;-70
2023/04/09 08:44:27;;;;;;;40.83;25.83;;;10.20;99.90;;;;;;5087652;28;20444;-69
2023/04/09 08:46:53;;;;;;;39.80;24.73;;;9.90;99.90;;;;;;5078238;28;20036;-70
2023/04/09 08:49:20;;;;;;;43.05;25.45;;;10.20;99.90;;;;;;5081642;28;20047;-70
2023/04/09 08:51:47;;;;;;;40.80;26.15;;;10.00;99.90;;;;;;5079217;28;20039;-70
2023/04/09 08:54:18;;;;;;;41.88;24.52;;;10.00;99.90;;;;;;5058485;28;20094;-70
2023/04/09 08:56:45;;;;;;;40.17;24.27;;;10.00;99.90;;;;;;5077841;28;20585;-70
2023/04/09 08:59:14;;;;;;;39.95;24.52;;;9.90;99.90;;;;;;5083524;28;20121;-69
2023/04/09 09:01:40;;;;;;;42.22;25.80;;;10.10;99.90;;;;;;5081501;28;20036;-68
2023/04/09 09:04:07;;;;;;;38.95;23.95;;;10.10;99.90;;;;;;5073876;28;20062;-66
2023/04/09 09:06:38;;;;;;;38.08;24.48;;;10.10;99.90;;;;;;5073916;28;20036;-69
2023/04/09 09:09:11;;;;;;;35.83;23.13;;;10.20;99.90;;;;;;5077219;28;20122;-70
2023/04/09 09:11:38;;;;;;;;;;;10.10;99.90;;;;;;5077969;28;20055;-66
2023/04/09 09:14:09;;;;;;;40.60;25.30;;;10.10;99.90;;;;;;5074751;28;20599;-69
2023/04/09 09:16:39;;;;;;;43.42;24.77;;;10.10;99.90;;;;;;5074692;28;20033;-69
2023/04/09 09:19:05;;;;;;;40.53;23.98;;;10.30;99.90;;;;;;5076604;28;20059;-70
2023/04/09 09:21:32;;;;;;;40.45;24.88;;;10.20;99.90;;;;;;5082851;28;20496;-70
2023/04/09 09:23:57;;;;;;;38.05;23.65;;;10.30;99.90;;;;;;5080004;28;20048;-71
2023/04/09 09:26:26;;;;;;;40.47;24.52;;;10.30;99.90;;;;;;5082605;28;20400;-70
2023/04/09 09:28:52;;;;;;;38.00;23.40;;;10.30;99.90;;;;;;5083174;28;20609;-70
2023/04/09 09:31:19;;;;;;;36.85;21.88;;;10.30;99.90;;;;;;5077152;28;20115;-70
2023/04/09 09:33:46;;;;;;;43.03;25.10;;;10.30;99.90;;;;;;5079187;28;20140;-69
2023/04/09 09:36:11;;;;;;;40.58;25.05;;;10.30;99.90;;;;;;5081451;28;20092;-69
2023/04/09 09:38:55;;;;;;;41.50;25.92;;;10.40;99.90;;;;;;5082103;28;20119;-66
2023/04/09 09:41:21;;;;;;;41.22;24.38;;;10.60;99.90;;;;;;5091061;28;20511;-70
2023/04/09 09:43:47;;;;;;;44.88;25.52;;;;;;;;;;5091275;28;20066;-68
2023/04/09 09:46:14;;;;;;;42.10;25.20;;;10.50;99.90;;;;;;5090251;28;20032;-69
2023/04/09 09:48:41;;;;;;;45.72;26.48;;;10.70;99.90;;;;;;5091370;28;20032;-69
2023/04/09 09:51:11;;;;;;;45.03;26.83;;;10.30;99.90;;;;;;5089518;28;20044;-67
2023/04/09 09:53:38;;;;;;;46.00;26.77;;;10.70;99.90;;;;;;5066907;28;20512;-69
2023/04/09 09:56:06;;;;;;;43.13;26.17;;;10.90;99.90;;;;;;5071862;28;20060;-70
2023/04/09 09:58:39;;;;;;;45.58;25.85;;;10.90;99.90;;;;;;5076023;28;20032;-70
2023/04/09 10:01:11;;;;;;;44.10;25.83;;;10.90;99.90;;;;;;5077355;28;20040;-69
2023/04/09 10:03:38;;;;;;;43.65;26.65;;;10.70;99.90;;;;;;5085069;28;20097;-68
2023/04/09 10:06:05;;;;;;;44.72;27.00;;;10.80;99.90;;;;;;5093031;28;20036;-70
2023/04/09 10:08:33;;;;;;;41.65;25.63;;;10.90;99.90;;;;;;5092115;28;20442;-69
2023/04/09 10:11:00;;;;;;;44.83;26.88;;;10.90;99.90;;;;;;5093815;28;20116;-70
2023/04/09 10:13:32;;;;;;;43.20;27.08;;;10.90;99.90;;;;;;5093859;28;20043;-70
2023/04/09 10:15:58;;;;;;;42.15;26.85;;;10.90;99.90;;;;;;5094633;28;20046;-70
2023/04/09 10:18:25;;;;;;;44.28;26.17;;;;;;;;;;5094504;28;20059;-70
2023/04/09 10:20:56;;;;;;;43.10;26.95;;;11.20;99.90;;;;;;5093921;28;20040;-69
2023/04/09 10:23:30;;;;;;;45.55;27.33;;;11.30;99.90;;;;;;5094430;28;20073;-69
2023/04/09 10:25:56;;;;;;;44.00;26.92;;;11.40;99.90;;;;;;5093996;28;20036;-69
2023/04/09 10:28:22;;;;;;;43.25;26.20;;;;;;;;;;5094656;28;20086;-70
2023/04/09 10:30:48;;;;;;;40.88;25.52;;;11.60;99.90;;;;;;5094617;28;20123;-69
2023/04/09 10:33:15;;;;;;;40.58;24.95;;;11.70;99.90;;;;;;5094446;28;20082;-69
2023/04/09 10:35:45;;;;;;;41.00;26.45;;;11.90;99.90;;;;;;5093972;28;20085;-69
2023/04/09 10:38:12;;;;;;;41.33;25.52;;;11.80;99.90;;;;;;5094028;28;20036;-70
2023/04/09 10:40:49;;;;;;;42.80;26.50;;;12.00;99.90;;;;;;5093956;28;20117;-70
2023/04/09 10:43:18;;;;;;;43.05;26.05;;;12.00;99.90;;;;;;5094067;28;20036;-70
2023/04/09 10:45:47;;;;;;;45.75;26.20;;;12.00;99.90;;;;;;5093881;28;20071;-70
2023/04/09 10:48:13;;;;;;;41.15;25.35;;;;;;;;;;5093861;28;20040;-70
2023/04/09 10:50:42;;;;;;;39.67;25.33;;;12.80;99.90;;;;;;5093656;28;20040;-70
2023/04/09 10:53:21;;;;;;;42.55;25.25;;;12.60;99.90;;;;;;5093874;28;20046;-70
2023/04/09 10:55:49;;;;;;;39.88;23.30;;;12.60;99.90;;;;;;5093605;28;20067;-70
2023/04/09 10:58:15;;;;;;;42.28;26.02;;;12.60;99.90;;;;;;5093700;28;20039;-70
2023/04/09 11:00:42;;;;;;;44.42;26.65;;;12.70;99.90;;;;;;5093571;28;20053;-70
2023/04/09 11:03:08;;;;;;;39.90;26.17;;;12.50;99.90;;;;;;5093406;28;20040;-70
2023/04/09 11:05:38;;;;;;;38.05;24.40;;;12.60;99.90;;;;;;5093172;28;20047;-70
2023/04/09 11:08:04;;;;;;;37.92;25.58;;;;;;;;;;5094012;28;20043;-70
2023/04/09 11:10:31;;;;;;;39.22;25.33;;;13.10;99.90;;;;;;5093458;28;20044;-70
2023/04/09 11:12:56;;;;;;;40.30;26.83;;;12.90;99.90;;;;;;5093490;28;20086;-69
2023/04/09 11:15:22;;;;;;;37.90;24.52;;;;;;;;;;5093275;28;20442;-70
2023/04/09 11:17:49;;;;;;;39.00;25.25;;;13.20;99.90;;;;;;5092976;28;20043;-70
2023/04/09 11:20:20;;;;;;;40.08;25.50;;;12.90;99.90;;;;;;5093340;28;20040;-70
2023/04/09 11:22:47;;;;;;;38.35;24.42;;;13.30;99.90;;;;;;5093292;28;20032;-70
2023/04/09 11:25:25;;;;;;;35.97;24.58;;;;;;;;;;5092871;28;20503;-70
2023/04/09 11:27:51;;;;;;;37.95;23.88;;;;;;;;;;5093144;28;20040;-70
2023/04/09 11:30:17;;;;;;;39.78;23.92;;;;;;;;;;5092511;28;20389;-70
2023/04/09 11:32:43;;;;;;;36.40;24.23;;;14.00;99.90;;;;;;5092339;28;20040;-69
2023/04/09 11:35:14;;;;;;;33.38;21.70;;;15.10;99.90;;;;;;5092953;28;20497;-70
2023/04/09 11:37:41;;;;;;;36.00;22.90;;;14.10;99.90;;;;;;5092826;28;20077;-70
2023/04/09 11:40:15;;;;;;;35.83;23.30;;;14.10;99.90;;;;;;5093183;28;20077;-70
2023/04/09 11:42:41;;;;;;;30.52;21.75;;;13.90;99.90;;;;;;5092798;28;20036;-70
2023/04/09 11:45:09;;;;;;;36.25;22.77;;;13.60;99.90;;;;;;5092525;28;20051;-70
2023/04/09 11:47:36;;;;;;;34.15;23.92;;;13.60;99.90;;;;;;5092477;28;20044;-70
2023/04/09 11:50:02;;;;;;;30.55;21.80;;;14.00;99.90;;;;;;5092693;28;20327;-70
2023/04/09 11:52:29;;;;;;;40.38;25.42;;;13.60;99.90;;;;;;5092641;28;20032;-69
2023/04/09 11:55:00;;;;;;;37.20;23.10;;;14.20;99.90;;;;;;5092404;28;20040;-70
2023/04/09 11:57:45;;;;;;;30.48;21.73;;;14.40;99.90;;;;;;5092760;28;20085;-70
2023/04/09 12:00:13;;;;;;;35.22;22.27;;;14.30;99.90;;;;;;5092438;28;20040;-69
2023/04/09 12:02:45;;;;;;;35.58;24.67;;;14.40;99.90;;;;;;5092458;28;20044;-71
2023/04/09 12:05:22;;;;;;;32.55;22.42;;;14.20;99.90;;;;;;5092413;28;20047;-70
2023/04/09 12:07:48;;;;;;;34.83;23.33;;;;;;;;;;5092203;28;20537;-70
2023/04/09 12:10:14;;;;;;;32.75;22.27;;;14.40;99.90;;;;;;5092369;28;20047;-69
2023/04/09 12:12:46;;;;;;;31.40;20.63;;;14.50;99.90;;;;;;5092371;28;20036;-70
2023/04/09 12:15:23;;;;;;;29.55;20.55;;;14.40;99.90;;;;;;5092208;28;20094;-70
2023/04/09 12:17:58;;;;;;;32.22;20.80;;;14.50;99.90;;;;;;5092044;28;20406;-70
2023/04/09 12:20:30;;;;;;;31.42;20.38;;;14.50;99.90;;;;;;5092149;28;20040;-70
2023/04/09 12:22:56;;;;;;;27.58;19.00;;;14.30;99.90;;;;;;5092255;28;20093;-70
2023/04/09 12:25:22;;;;;;;27.05;19.67;;;14.50;99.90;;;;;;5092138;28;20119;-70
2023/04/09 12:27:48;;;;;;;32.58;20.33;;;14.40;99.90;;;;;;5091960;28;20079;-70
2023/04/09 12:30:14;;;;;;;31.40;20.67;;;;;;;;;;5091894;28;20411;-70
2023/04/09 12:32:41;;;;;;;34.08;21.15;;;14.40;99.90;;;;;;5091928;28;20559;-70
2023/04/09 12:35:07;;;;;;;28.40;18.60;;;14.50;99.90;;;;;;5091779;28;20039;-70
2023/04/09 12:37:33;;;;;;;31.27;20.83;;;15.00;99.90;;;;;;5091871;28;20343;-70
2023/04/09 12:39:58;;;;;;;28.77;19.02;;;15.30;99.90;;;;;;5091989;28;20040;-70
2023/04/09 12:42:24;;;;;;;30.27;18.85;;;;;;;;;;5091639;28;20036;-70
2023/04/09 12:44:51;;;;;;;26.08;18.15;;;;;;;;;;5091761;28;20123;-70
2023/04/09 12:47:17;;;;;;;28.83;20.27;;;;;;;;;;5091555;28;20044;-70